createdAt,value
2018-10-07T00:00:24.887Z,996.75
2018-10-07T00:01:24.865Z,996.80
2018-10-07T00:02:24.849Z,996.75
2018-10-07T00:03:24.844Z,996.79
2018-10-07T00:04:24.831Z,996.82
2018-10-07T00:05:24.832Z,996.82
2018-10-07T00:06:24.807Z,996.77
2018-10-07T00:07:24.811Z,996.82
2018-10-07T00:08:24.797Z,996.84
2018-10-07T00:09:24.773Z,996.88
2018-10-07T00:10:24.764Z,996.93
2018-10-07T00:11:24.752Z,996.89
2018-10-07T00:12:24.755Z,996.91
2018-10-07T00:13:24.727Z,996.93
2018-10-07T00:14:24.717Z,997.01
2018-10-07T00:15:24.707Z,997.01
2018-10-07T00:16:24.696Z,997.01
2018-10-07T00:17:24.722Z,997.02
2018-10-07T00:18:24.672Z,997.00
2018-10-07T00:19:24.663Z,997.03
2018-10-07T00:20:24.653Z,997.03
2018-10-07T00:21:24.640Z,997.07
2018-10-07T00:22:24.628Z,997.06
2018-10-07T00:23:24.649Z,997.04
2018-10-07T00:24:24.606Z,997.08
2018-10-07T00:25:24.593Z,997.11
2018-10-07T00:26:24.585Z,997.09
2018-10-07T00:27:24.576Z,997.11
2018-10-07T00:28:24.562Z,997.12
2018-10-07T00:29:24.560Z,997.15
2018-10-07T00:30:24.541Z,997.21
2018-10-07T00:31:24.547Z,997.24
2018-10-07T00:32:24.517Z,997.20
2018-10-07T00:33:24.506Z,997.20
2018-10-07T00:34:24.494Z,997.19
2018-10-07T00:35:24.486Z,997.16
2018-10-07T00:36:24.489Z,997.19
2018-10-07T00:37:24.463Z,997.20
2018-10-07T00:38:24.453Z,997.23
2018-10-07T00:39:24.438Z,997.29
2018-10-07T00:40:24.432Z,997.34
2018-10-07T00:41:24.435Z,997.35
2018-10-07T00:42:24.408Z,997.37
2018-10-07T00:43:24.395Z,997.42
2018-10-07T00:44:24.387Z,997.49
2018-10-07T00:45:24.372Z,997.55
2018-10-07T00:46:24.378Z,997.57
2018-10-07T00:47:24.369Z,997.63
2018-10-07T00:48:24.341Z,997.67
2018-10-07T00:49:24.333Z,997.66
2018-10-07T00:50:24.321Z,997.66
2018-10-07T00:51:24.320Z,997.67
2018-10-07T00:52:24.310Z,997.70
2018-10-07T00:53:24.324Z,997.71
2018-10-07T00:54:24.274Z,997.71
2018-10-07T00:55:24.266Z,997.71
2018-10-07T00:56:24.253Z,997.68
2018-10-07T00:57:24.243Z,997.73
2018-10-07T00:58:24.232Z,997.73
2018-10-07T00:59:24.232Z,997.71
2018-10-07T01:00:24.208Z,997.76
2018-10-07T01:01:24.196Z,997.79
2018-10-07T01:02:24.188Z,997.76
2018-10-07T01:03:24.175Z,997.77
2018-10-07T01:04:24.179Z,997.82
2018-10-07T01:05:24.154Z,997.87
2018-10-07T01:06:24.141Z,997.88
2018-10-07T01:07:24.132Z,997.91
2018-10-07T01:08:24.118Z,997.95
2018-10-07T01:09:24.123Z,997.99
2018-10-07T01:10:24.099Z,998.02
2018-10-07T01:11:24.086Z,998.08
2018-10-07T01:12:24.076Z,998.08
2018-10-07T01:13:24.076Z,998.11
2018-10-07T01:14:24.055Z,998.14
2018-10-07T01:15:24.054Z,998.17
2018-10-07T01:16:24.031Z,998.17
2018-10-07T01:17:24.018Z,998.15
2018-10-07T01:18:24.046Z,998.12
2018-10-07T01:19:23.999Z,998.12
2018-10-07T01:20:23.987Z,998.12
2018-10-07T01:21:23.973Z,998.20
2018-10-07T01:22:23.964Z,998.16
2018-10-07T01:23:23.950Z,998.18
2018-10-07T01:24:23.973Z,998.22
2018-10-07T01:25:23.931Z,998.21
2018-10-07T01:26:23.920Z,998.23
2018-10-07T01:27:23.909Z,998.30
2018-10-07T01:28:23.895Z,998.34
2018-10-07T01:29:23.889Z,998.41
2018-10-07T01:30:23.883Z,998.47
2018-10-07T01:31:23.884Z,998.49
2018-10-07T01:32:23.850Z,998.52
2018-10-07T01:33:23.844Z,998.55
2018-10-07T01:34:23.829Z,998.56
2018-10-07T01:35:23.823Z,998.60
2018-10-07T01:36:23.845Z,998.59
2018-10-07T01:37:23.800Z,998.60
2018-10-07T01:38:23.789Z,998.69
2018-10-07T01:39:23.776Z,998.67
2018-10-07T01:40:23.766Z,998.66
2018-10-07T01:41:23.754Z,998.62
2018-10-07T01:42:23.757Z,998.55
2018-10-07T01:43:23.732Z,998.60
2018-10-07T01:44:23.741Z,998.51
2018-10-07T01:45:23.706Z,998.55
2018-10-07T01:46:23.695Z,998.61
2018-10-07T01:47:23.688Z,998.60
2018-10-07T01:48:23.675Z,998.64
2018-10-07T01:49:23.663Z,998.65
2018-10-07T01:50:23.663Z,998.67
2018-10-07T01:51:23.642Z,998.66
2018-10-07T01:52:23.673Z,998.68
2018-10-07T01:53:23.619Z,998.74
2018-10-07T01:54:23.608Z,998.68
2018-10-07T01:55:23.600Z,998.69
2018-10-07T01:56:23.587Z,998.72
2018-10-07T01:57:23.576Z,998.76
2018-10-07T01:58:23.606Z,998.78
2018-10-07T01:59:23.629Z,998.76
2018-10-07T02:00:23.543Z,998.73
2018-10-07T02:01:23.531Z,998.79
2018-10-07T02:02:23.519Z,998.84
2018-10-07T02:03:23.508Z,998.84
2018-10-07T02:04:23.513Z,998.84
2018-10-07T02:05:23.488Z,998.92
2018-10-07T02:06:23.474Z,998.85
2018-10-07T02:07:23.466Z,998.94
2018-10-07T02:08:23.452Z,998.98
2018-10-07T02:09:23.455Z,998.95
2018-10-07T02:10:23.434Z,998.90
2018-10-07T02:11:23.424Z,998.92
2018-10-07T02:12:23.411Z,998.96
2018-10-07T02:13:23.430Z,998.95
2018-10-07T02:14:23.387Z,998.92
2018-10-07T02:15:23.373Z,998.88
2018-10-07T02:16:23.366Z,998.92
2018-10-07T02:17:23.355Z,998.92
2018-10-07T02:18:23.341Z,998.91
2018-10-07T02:19:23.344Z,998.88
2018-10-07T02:20:23.322Z,998.88
2018-10-07T02:21:23.310Z,998.87
2018-10-07T02:22:23.295Z,998.88
2018-10-07T02:23:23.285Z,998.88
2018-10-07T02:24:23.318Z,998.93
2018-10-07T02:25:23.267Z,999.01
2018-10-07T02:26:23.317Z,999.05
2018-10-07T02:27:23.243Z,999.08
2018-10-07T02:28:23.235Z,999.15
2018-10-07T02:29:23.217Z,999.22
2018-10-07T02:30:23.222Z,999.28
2018-10-07T02:31:23.199Z,999.32
2018-10-07T02:32:23.184Z,999.36
2018-10-07T02:33:23.177Z,999.43
2018-10-07T02:34:23.166Z,999.45
2018-10-07T02:35:23.166Z,999.43
2018-10-07T02:36:23.143Z,999.45
2018-10-07T02:37:23.134Z,999.41
2018-10-07T02:38:23.118Z,999.43
2018-10-07T02:39:23.107Z,999.45
2018-10-07T02:40:23.114Z,999.42
2018-10-07T02:41:23.102Z,999.41
2018-10-07T02:42:23.088Z,999.51
2018-10-07T02:43:23.065Z,999.36
2018-10-07T02:44:23.054Z,999.45
2018-10-07T02:45:23.042Z,999.39
2018-10-07T02:46:23.066Z,999.47
2018-10-07T02:47:23.019Z,999.44
2018-10-07T02:48:23.009Z,999.48
2018-10-07T02:49:23.001Z,999.60
2018-10-07T02:50:22.988Z,999.59
2018-10-07T02:51:22.975Z,999.65
2018-10-07T02:52:23.001Z,999.71
2018-10-07T02:53:23.091Z,999.75
2018-10-07T02:54:22.942Z,999.82
2018-10-07T02:55:22.933Z,999.91
2018-10-07T02:56:22.919Z,1000.02
2018-10-07T02:57:22.911Z,1000.14
2018-10-07T02:58:22.926Z,1000.20
2018-10-07T02:59:22.886Z,1000.26
2018-10-07T03:00:22.879Z,1000.33
2018-10-07T03:01:22.864Z,1000.34
2018-10-07T03:02:22.854Z,1000.37
2018-10-07T03:03:22.846Z,1000.39
2018-10-07T03:04:22.868Z,1000.37
2018-10-07T03:05:22.823Z,1000.44
2018-10-07T03:06:22.812Z,1000.42
2018-10-07T03:07:22.799Z,1000.47
2018-10-07T03:08:22.790Z,1000.46
2018-10-07T03:09:22.776Z,1000.34
2018-10-07T03:10:22.780Z,1000.31
2018-10-07T03:11:22.755Z,1000.33
2018-10-07T03:12:22.747Z,1000.27
2018-10-07T03:13:22.731Z,1000.27
2018-10-07T03:14:22.744Z,1000.27
2018-10-07T03:15:22.711Z,1000.28
2018-10-07T03:16:22.703Z,1000.31
2018-10-07T03:17:22.692Z,1000.36
2018-10-07T03:18:22.681Z,1000.31
2018-10-07T03:19:22.669Z,1000.37
2018-10-07T03:20:22.679Z,1000.49
2018-10-07T03:21:22.649Z,1000.52
2018-10-07T03:22:22.638Z,1000.63
2018-10-07T03:23:22.626Z,1000.69
2018-10-07T03:24:22.613Z,1000.62
2018-10-07T03:25:22.601Z,1000.66
2018-10-07T03:26:22.605Z,1000.69
2018-10-07T03:27:22.583Z,1000.71
2018-10-07T03:28:22.572Z,1000.72
2018-10-07T03:29:22.623Z,1000.66
2018-10-07T03:30:22.571Z,1000.74
2018-10-07T03:31:22.539Z,1000.76
2018-10-07T03:32:22.528Z,1000.77
2018-10-07T03:33:22.517Z,1000.83
2018-10-07T03:34:22.504Z,1000.87
2018-10-07T03:35:22.498Z,1000.98
2018-10-07T03:36:22.492Z,1001.10
2018-10-07T03:37:22.471Z,1001.00
2018-10-07T03:38:22.459Z,1001.16
2018-10-07T03:39:22.450Z,1001.17
2018-10-07T03:40:22.438Z,1001.26
2018-10-07T03:41:22.436Z,1001.29
2018-10-07T03:42:22.421Z,1001.28
2018-10-07T03:43:22.408Z,1001.35
2018-10-07T03:44:22.426Z,1001.33
2018-10-07T03:45:22.387Z,1001.39
2018-10-07T03:46:22.371Z,1001.33
2018-10-07T03:47:22.361Z,1001.39
2018-10-07T03:48:22.351Z,1001.36
2018-10-07T03:49:22.339Z,1001.42
2018-10-07T03:50:22.352Z,1001.39
2018-10-07T03:51:22.316Z,1001.32
2018-10-07T03:52:22.306Z,1001.39
2018-10-07T03:53:22.296Z,1001.45
2018-10-07T03:54:22.284Z,1001.47
2018-10-07T03:55:22.271Z,1001.53
2018-10-07T03:56:22.283Z,1001.46
2018-10-07T03:57:22.249Z,1001.52
2018-10-07T03:58:22.254Z,1001.53
2018-10-07T03:59:22.230Z,1001.54
2018-10-07T04:00:22.216Z,1001.62
2018-10-07T04:01:22.204Z,1001.63
2018-10-07T04:02:22.207Z,1001.69
2018-10-07T04:03:22.185Z,1001.75
2018-10-07T04:04:22.171Z,1001.72
2018-10-07T04:05:22.160Z,1001.74
2018-10-07T04:06:22.153Z,1001.67
2018-10-07T04:07:22.159Z,1001.65
2018-10-07T04:08:22.126Z,1001.65
2018-10-07T04:09:22.119Z,1001.66
2018-10-07T04:10:22.108Z,1001.69
2018-10-07T04:11:22.097Z,1001.69
2018-10-07T04:12:22.090Z,1001.68
2018-10-07T04:13:22.082Z,1001.71
2018-10-07T04:14:22.076Z,1001.75
2018-10-07T04:15:22.048Z,1001.64
2018-10-07T04:16:22.041Z,1001.73
2018-10-07T04:17:22.030Z,1001.70
2018-10-07T04:18:22.056Z,1001.66
2018-10-07T04:19:22.005Z,1001.68
2018-10-07T04:20:21.993Z,1001.69
2018-10-07T04:21:21.989Z,1001.69
2018-10-07T04:22:21.977Z,1001.70
2018-10-07T04:23:21.960Z,1001.75
2018-10-07T04:24:21.972Z,1001.70
2018-10-07T04:25:21.938Z,1001.74
2018-10-07T04:26:21.929Z,1001.75
2018-10-07T04:27:21.923Z,1001.78
2018-10-07T04:28:21.907Z,1001.79
2018-10-07T04:29:21.896Z,1001.82
2018-10-07T04:30:21.914Z,1001.82
2018-10-07T04:31:21.875Z,1001.82
2018-10-07T04:32:21.866Z,1001.82
2018-10-07T04:33:21.854Z,1001.85
2018-10-07T04:34:21.844Z,1001.84
2018-10-07T04:35:21.833Z,1001.86
2018-10-07T04:36:21.832Z,1001.86
2018-10-07T04:37:21.810Z,1001.86
2018-10-07T04:38:21.799Z,1001.89
2018-10-07T04:39:21.785Z,1001.95
2018-10-07T04:40:21.776Z,1001.91
2018-10-07T04:41:21.782Z,1001.90
2018-10-07T04:42:21.754Z,1001.85
2018-10-07T04:43:21.746Z,1001.82
2018-10-07T04:44:21.732Z,1001.76
2018-10-07T04:45:21.724Z,1001.76
2018-10-07T04:46:21.757Z,1001.74
2018-10-07T04:47:21.700Z,1001.85
2018-10-07T04:48:21.692Z,1001.79
2018-10-07T04:49:21.681Z,1001.76
2018-10-07T04:50:21.671Z,1001.70
2018-10-07T04:51:21.657Z,1001.67
2018-10-07T04:52:21.670Z,1001.67
2018-10-07T04:53:21.637Z,1001.70
2018-10-07T04:54:21.624Z,1001.74
2018-10-07T04:55:21.616Z,1001.76
2018-10-07T04:56:21.611Z,1001.78
2018-10-07T04:57:21.592Z,1001.80
2018-10-07T04:58:21.595Z,1001.87
2018-10-07T04:59:21.571Z,1001.90
2018-10-07T05:00:21.634Z,1001.93
2018-10-07T05:01:21.547Z,1002.03
2018-10-07T05:02:21.539Z,1002.04
2018-10-07T05:03:21.542Z,1002.04
2018-10-07T05:04:21.533Z,1002.04
2018-10-07T05:05:21.505Z,1002.04
2018-10-07T05:06:21.492Z,1002.01
2018-10-07T05:07:21.484Z,1002.07
2018-10-07T05:08:21.472Z,1002.04
2018-10-07T05:09:21.471Z,1002.09
2018-10-07T05:10:21.452Z,1002.07
2018-10-07T05:11:21.442Z,1002.14
2018-10-07T05:12:21.547Z,1002.14
2018-10-07T05:13:21.434Z,1002.16
2018-10-07T05:14:21.406Z,1002.21
2018-10-07T05:15:21.398Z,1002.18
2018-10-07T05:16:21.385Z,1002.22
2018-10-07T05:17:21.384Z,1002.27
2018-10-07T05:18:21.363Z,1002.34
2018-10-07T05:19:21.355Z,1002.42
2018-10-07T05:20:21.357Z,1002.43
2018-10-07T05:21:21.335Z,1002.45
2018-10-07T05:22:21.320Z,1002.41
2018-10-07T05:23:21.312Z,1002.43
2018-10-07T05:24:21.313Z,1002.41
2018-10-07T05:25:21.289Z,1002.42
2018-10-07T05:26:21.292Z,1002.50
2018-10-07T05:27:21.268Z,1002.53
2018-10-07T05:28:21.257Z,1002.55
2018-10-07T05:29:21.244Z,1002.54
2018-10-07T05:30:21.248Z,1002.56
2018-10-07T05:31:21.225Z,1002.62
2018-10-07T05:32:21.212Z,1002.62
2018-10-07T05:33:21.253Z,1002.63
2018-10-07T05:34:21.189Z,1002.65
2018-10-07T05:35:21.197Z,1002.72
2018-10-07T05:36:21.168Z,1002.74
2018-10-07T05:37:21.159Z,1002.79
2018-10-07T05:38:21.148Z,1002.79
2018-10-07T05:39:21.134Z,1002.78
2018-10-07T05:40:21.123Z,1002.83
2018-10-07T05:41:21.128Z,1002.76
2018-10-07T05:42:21.117Z,1002.86
2018-10-07T05:43:21.096Z,1002.87
2018-10-07T05:44:21.136Z,1002.89
2018-10-07T05:45:21.069Z,1002.90
2018-10-07T05:46:21.072Z,1002.87
2018-10-07T05:47:21.050Z,1002.87
2018-10-07T05:48:21.040Z,1002.93
2018-10-07T05:49:21.027Z,1002.98
2018-10-07T05:50:21.015Z,1003.02
2018-10-07T05:51:21.019Z,1002.97
2018-10-07T05:52:20.996Z,1003.02
2018-10-07T05:53:20.981Z,1003.01
2018-10-07T05:54:20.973Z,1003.08
2018-10-07T05:55:20.964Z,1003.11
2018-10-07T05:56:20.949Z,1003.11
2018-10-07T05:57:20.956Z,1003.13
2018-10-07T05:58:20.930Z,1003.17
2018-10-07T05:59:20.921Z,1003.22
2018-10-07T06:00:20.909Z,1003.27
2018-10-07T06:01:20.900Z,1003.20
2018-10-07T06:02:20.907Z,1003.24
2018-10-07T06:03:20.875Z,1003.28
2018-10-07T06:04:20.862Z,1003.32
2018-10-07T06:05:20.850Z,1003.33
2018-10-07T06:06:20.840Z,1003.33
2018-10-07T06:07:20.828Z,1003.39
2018-10-07T06:08:20.850Z,1003.41
2018-10-07T06:09:20.809Z,1003.40
2018-10-07T06:10:20.796Z,1003.46
2018-10-07T06:11:20.782Z,1003.50
2018-10-07T06:12:20.772Z,1003.48
2018-10-07T06:13:20.764Z,1003.52
2018-10-07T06:14:20.766Z,1003.57
2018-10-07T06:15:20.739Z,1003.59
2018-10-07T06:16:20.727Z,1003.58
2018-10-07T06:17:20.720Z,1003.61
2018-10-07T06:18:20.729Z,1003.62
2018-10-07T06:19:20.698Z,1003.59
2018-10-07T06:20:20.705Z,1003.66
2018-10-07T06:21:20.722Z,1003.65
2018-10-07T06:22:20.664Z,1003.66
2018-10-07T06:23:20.654Z,1003.64
2018-10-07T06:24:20.653Z,1003.63
2018-10-07T06:25:20.644Z,1003.64
2018-10-07T06:26:20.622Z,1003.64
2018-10-07T06:27:20.609Z,1003.72
2018-10-07T06:28:20.596Z,1003.78
2018-10-07T06:29:20.583Z,1003.81
2018-10-07T06:30:20.605Z,1003.85
2018-10-07T06:31:20.566Z,1003.85
2018-10-07T06:32:20.554Z,1003.87
2018-10-07T06:33:20.542Z,1003.99
2018-10-07T06:34:20.533Z,1003.91
2018-10-07T06:35:20.520Z,1003.97
2018-10-07T06:36:20.535Z,1003.93
2018-10-07T06:37:20.500Z,1004.00
2018-10-07T06:38:20.489Z,1003.99
2018-10-07T06:39:20.476Z,1003.99
2018-10-07T06:40:20.465Z,1003.99
2018-10-07T06:41:20.553Z,1004.06
2018-10-07T06:42:20.445Z,1004.09
2018-10-07T06:43:20.431Z,1004.09
2018-10-07T06:44:20.420Z,1004.14
2018-10-07T06:45:20.421Z,1004.16
2018-10-07T06:46:20.398Z,1004.16
2018-10-07T06:47:20.401Z,1004.27
2018-10-07T06:48:20.376Z,1004.29
2018-10-07T06:49:20.366Z,1004.27
2018-10-07T06:50:20.358Z,1004.34
2018-10-07T06:51:20.352Z,1004.35
2018-10-07T06:52:20.380Z,1004.36
2018-10-07T06:53:20.321Z,1004.37
2018-10-07T06:54:20.309Z,1004.44
2018-10-07T06:55:20.300Z,1004.45
2018-10-07T06:56:20.287Z,1004.46
2018-10-07T06:57:20.291Z,1004.50
2018-10-07T06:58:20.267Z,1004.50
2018-10-07T06:59:20.254Z,1004.57
2018-10-07T07:00:20.243Z,1004.58
2018-10-07T07:01:20.234Z,1004.63
2018-10-07T07:02:20.252Z,1004.70
2018-10-07T07:03:20.212Z,1004.71
2018-10-07T07:04:20.203Z,1004.75
2018-10-07T07:05:20.189Z,1004.73
2018-10-07T07:06:20.198Z,1004.75
2018-10-07T07:07:20.165Z,1004.79
2018-10-07T07:08:20.168Z,1004.84
2018-10-07T07:09:20.145Z,1004.80
2018-10-07T07:10:20.134Z,1004.87
2018-10-07T07:11:20.126Z,1004.82
2018-10-07T07:12:20.111Z,1004.87
2018-10-07T07:13:20.112Z,1004.86
2018-10-07T07:14:20.092Z,1004.85
2018-10-07T07:15:20.081Z,1004.83
2018-10-07T07:16:20.066Z,1004.82
2018-10-07T07:17:20.057Z,1004.81
2018-10-07T07:18:20.057Z,1004.87
2018-10-07T07:19:20.039Z,1004.83
2018-10-07T07:20:20.053Z,1004.80
2018-10-07T07:21:20.011Z,1004.78
2018-10-07T07:22:20.001Z,1004.83
2018-10-07T07:23:20.006Z,1004.85
2018-10-07T07:24:19.980Z,1004.81
2018-10-07T07:25:19.972Z,1004.83
2018-10-07T07:26:19.961Z,1004.84
2018-10-07T07:27:19.952Z,1004.81
2018-10-07T07:28:19.937Z,1004.85
2018-10-07T07:29:19.937Z,1004.82
2018-10-07T07:30:19.928Z,1004.86
2018-10-07T07:31:19.963Z,1004.85
2018-10-07T07:32:19.893Z,1004.88
2018-10-07T07:33:19.883Z,1004.90
2018-10-07T07:34:19.871Z,1004.91
2018-10-07T07:35:19.875Z,1004.83
2018-10-07T07:36:19.847Z,1004.96
2018-10-07T07:37:19.839Z,1005.01
2018-10-07T07:38:19.836Z,1004.94
2018-10-07T07:39:19.827Z,1005.02
2018-10-07T07:40:19.806Z,1004.95
2018-10-07T07:41:20.706Z,1004.99
2018-10-07T07:42:19.837Z,1005.03
2018-10-07T07:43:19.783Z,1004.96
2018-10-07T07:44:19.762Z,1005.03
2018-10-07T07:45:19.752Z,1005.03
2018-10-07T07:46:19.747Z,1005.04
2018-10-07T07:47:19.727Z,1005.02
2018-10-07T07:48:19.717Z,1005.10
2018-10-07T07:49:19.703Z,1005.22
2018-10-07T07:50:19.732Z,1005.25
2018-10-07T07:51:19.683Z,1005.23
2018-10-07T07:52:19.673Z,1005.20
2018-10-07T07:53:19.662Z,1005.09
2018-10-07T07:54:19.648Z,1005.15
2018-10-07T07:55:19.641Z,1005.25
2018-10-07T07:56:19.643Z,1005.28
2018-10-07T07:57:19.651Z,1005.26
2018-10-07T07:58:19.604Z,1005.27
2018-10-07T07:59:19.596Z,1005.26
2018-10-07T08:00:19.582Z,1005.29
2018-10-07T08:01:19.577Z,1005.26
2018-10-07T08:02:19.561Z,1005.25
2018-10-07T08:03:19.565Z,1005.28
2018-10-07T08:04:19.537Z,1005.30
2018-10-07T08:05:19.529Z,1005.26
2018-10-07T08:06:19.516Z,1005.31
2018-10-07T08:07:19.523Z,1005.21
2018-10-07T08:08:19.510Z,1005.32
2018-10-07T08:09:19.487Z,1005.29
2018-10-07T08:10:19.481Z,1005.27
2018-10-07T08:11:19.465Z,1005.33
2018-10-07T08:12:19.463Z,1005.39
2018-10-07T08:13:19.442Z,1005.46
2018-10-07T08:14:19.445Z,1005.43
2018-10-07T08:15:19.419Z,1005.38
2018-10-07T08:16:19.413Z,1005.50
2018-10-07T08:17:19.461Z,1005.41
2018-10-07T08:18:19.403Z,1005.37
2018-10-07T08:19:19.378Z,1005.42
2018-10-07T08:20:19.364Z,1005.42
2018-10-07T08:21:19.356Z,1005.41
2018-10-07T08:22:19.343Z,1005.49
2018-10-07T08:23:19.390Z,1005.51
2018-10-07T08:24:19.320Z,1005.45
2018-10-07T08:25:19.311Z,1005.48
2018-10-07T08:26:19.300Z,1005.45
2018-10-07T08:27:19.299Z,1005.45
2018-10-07T08:28:19.277Z,1005.51
2018-10-07T08:29:19.298Z,1005.55
2018-10-07T08:30:19.256Z,1005.61
2018-10-07T08:31:19.246Z,1005.61
2018-10-07T08:32:19.233Z,1005.67
2018-10-07T08:33:19.221Z,1005.68
2018-10-07T08:34:19.211Z,1005.72
2018-10-07T08:35:19.302Z,1005.74
2018-10-07T08:36:19.192Z,1005.77
2018-10-07T08:37:19.179Z,1005.81
2018-10-07T08:38:19.176Z,1005.83
2018-10-07T08:39:19.157Z,1005.83
2018-10-07T08:40:19.163Z,1005.86
2018-10-07T08:41:19.134Z,1005.89
2018-10-07T08:42:19.125Z,1005.90
2018-10-07T08:43:19.115Z,1005.91
2018-10-07T08:44:19.101Z,1005.86
2018-10-07T08:45:19.091Z,1006.00
2018-10-07T08:46:19.124Z,1005.95
2018-10-07T08:47:19.071Z,1005.98
2018-10-07T08:48:19.058Z,1005.99
2018-10-07T08:49:19.047Z,1006.04
2018-10-07T08:50:19.041Z,1006.07
2018-10-07T08:51:19.026Z,1006.15
2018-10-07T08:52:19.028Z,1006.17
2018-10-07T08:53:19.006Z,1006.26
2018-10-07T08:54:18.995Z,1006.22
2018-10-07T08:55:18.995Z,1006.30
2018-10-07T08:56:19.003Z,1006.39
2018-10-07T08:57:18.965Z,1006.38
2018-10-07T08:58:18.949Z,1006.47
2018-10-07T08:59:18.939Z,1006.41
2018-10-07T09:00:18.951Z,1006.47
2018-10-07T09:01:18.915Z,1006.52
2018-10-07T09:02:18.905Z,1006.51
2018-10-07T09:03:18.892Z,1006.51
2018-10-07T09:04:18.887Z,1006.56
2018-10-07T09:05:18.873Z,1006.59
2018-10-07T09:06:18.881Z,1006.62
2018-10-07T09:07:18.848Z,1006.58
2018-10-07T09:08:18.840Z,1006.61
2018-10-07T09:09:18.832Z,1006.59
2018-10-07T09:10:18.816Z,1006.63
2018-10-07T09:11:18.806Z,1006.65
2018-10-07T09:12:18.813Z,1006.62
2018-10-07T09:13:18.783Z,1006.66
2018-10-07T09:14:18.774Z,1006.64
2018-10-07T09:15:18.761Z,1006.70
2018-10-07T09:16:18.750Z,1006.66
2018-10-07T09:17:18.750Z,1006.70
2018-10-07T09:18:18.744Z,1006.71
2018-10-07T09:19:18.729Z,1006.74
2018-10-07T09:20:18.705Z,1006.80
2018-10-07T09:21:18.704Z,1006.69
2018-10-07T09:22:18.684Z,1006.70
2018-10-07T09:23:18.687Z,1006.70
2018-10-07T09:24:18.665Z,1006.77
2018-10-07T09:25:18.658Z,1006.75
2018-10-07T09:26:18.643Z,1006.77
2018-10-07T09:27:18.771Z,1006.76
2018-10-07T09:28:18.619Z,1006.75
2018-10-07T09:29:18.623Z,1006.75
2018-10-07T09:30:18.612Z,1006.77
2018-10-07T09:31:18.586Z,1006.74
2018-10-07T09:32:18.589Z,1006.77
2018-10-07T09:33:18.562Z,1006.76
2018-10-07T09:34:18.570Z,1006.74
2018-10-07T09:35:18.543Z,1006.77
2018-10-07T09:36:18.533Z,1006.78
2018-10-07T09:37:18.520Z,1006.75
2018-10-07T09:38:18.507Z,1006.78
2018-10-07T09:39:18.612Z,1006.76
2018-10-07T09:40:18.490Z,1006.78
2018-10-07T09:41:18.479Z,1006.84
2018-10-07T09:42:18.469Z,1006.86
2018-10-07T09:43:18.454Z,1006.83
2018-10-07T09:44:18.467Z,1006.83
2018-10-07T09:45:18.449Z,1006.81
2018-10-07T09:46:18.433Z,1006.84
2018-10-07T09:47:18.512Z,1006.84
2018-10-07T09:48:18.398Z,1006.89
2018-10-07T09:49:18.389Z,1006.88
2018-10-07T09:50:18.401Z,1006.91
2018-10-07T09:51:18.372Z,1006.89
2018-10-07T09:52:18.372Z,1006.90
2018-10-07T09:53:18.346Z,1006.85
2018-10-07T09:54:18.336Z,1006.91
2018-10-07T09:55:18.323Z,1006.89
2018-10-07T09:56:18.348Z,1006.99
2018-10-07T09:57:18.301Z,1006.92
2018-10-07T09:58:18.290Z,1006.91
2018-10-07T09:59:18.277Z,1007.00
2018-10-07T10:00:18.269Z,1007.01
2018-10-07T10:01:18.337Z,1007.00
2018-10-07T10:02:18.281Z,1006.98
2018-10-07T10:03:18.239Z,1007.00
2018-10-07T10:04:18.360Z,1007.00
2018-10-07T10:05:18.212Z,1007.04
2018-10-07T10:06:18.203Z,1007.06
2018-10-07T10:07:18.193Z,1007.02
2018-10-07T10:08:18.210Z,1007.07
2018-10-07T10:09:18.171Z,1007.09
2018-10-07T10:10:18.160Z,1007.13
2018-10-07T10:11:18.239Z,1007.07
2018-10-07T10:12:18.143Z,1007.05
2018-10-07T10:13:18.126Z,1007.05
2018-10-07T10:14:18.338Z,1007.07
2018-10-07T10:15:18.106Z,1007.02
2018-10-07T10:16:18.100Z,1007.03
2018-10-07T10:17:18.086Z,1006.96
2018-10-07T10:18:18.102Z,1006.98
2018-10-07T10:19:18.064Z,1007.07
2018-10-07T10:20:18.054Z,1007.06
2018-10-07T10:21:18.041Z,1007.10
2018-10-07T10:22:18.038Z,1007.13
2018-10-07T10:23:18.017Z,1007.16
2018-10-07T10:24:18.023Z,1007.14
2018-10-07T10:25:18.010Z,1007.18
2018-10-07T10:26:17.987Z,1007.15
2018-10-07T10:27:18.011Z,1007.21
2018-10-07T10:28:17.966Z,1007.15
2018-10-07T10:29:17.953Z,1007.19
2018-10-07T10:30:17.955Z,1007.09
2018-10-07T10:31:17.932Z,1007.13
2018-10-07T10:32:17.931Z,1007.18
2018-10-07T10:33:17.955Z,1007.20
2018-10-07T10:34:17.901Z,1007.20
2018-10-07T10:35:17.891Z,1007.22
2018-10-07T10:36:17.880Z,1007.21
2018-10-07T10:37:17.867Z,1007.26
2018-10-07T10:38:17.856Z,1007.25
2018-10-07T10:39:17.854Z,1007.26
2018-10-07T10:40:17.836Z,1007.25
2018-10-07T10:41:17.822Z,1007.22
2018-10-07T10:42:17.812Z,1007.26
2018-10-07T10:43:17.802Z,1007.29
2018-10-07T10:44:17.803Z,1007.27
2018-10-07T10:45:17.779Z,1007.32
2018-10-07T10:46:17.768Z,1007.27
2018-10-07T10:47:17.756Z,1007.28
2018-10-07T10:48:17.794Z,1007.30
2018-10-07T10:49:17.737Z,1007.32
2018-10-07T10:50:17.725Z,1007.32
2018-10-07T10:51:17.714Z,1007.37
2018-10-07T10:52:17.701Z,1007.41
2018-10-07T10:53:17.692Z,1007.38
2018-10-07T10:54:17.710Z,1007.40
2018-10-07T10:55:17.714Z,1007.38
2018-10-07T10:56:17.659Z,1007.40
2018-10-07T10:57:17.647Z,1007.37
2018-10-07T10:58:17.638Z,1007.33
2018-10-07T10:59:17.627Z,1007.34
2018-10-07T11:00:17.628Z,1007.35
2018-10-07T11:01:17.619Z,1007.34
2018-10-07T11:02:17.592Z,1007.33
2018-10-07T11:03:17.584Z,1007.31
2018-10-07T11:04:17.618Z,1007.29
2018-10-07T11:05:17.565Z,1007.36
2018-10-07T11:06:17.548Z,1007.27
2018-10-07T11:07:17.538Z,1007.32
2018-10-07T11:08:17.528Z,1007.34
2018-10-07T11:09:17.543Z,1007.41
2018-10-07T11:10:17.521Z,1007.36
2018-10-07T11:11:17.493Z,1007.40
2018-10-07T11:12:17.483Z,1007.34
2018-10-07T11:13:17.470Z,1007.42
2018-10-07T11:14:17.464Z,1007.42
2018-10-07T11:15:17.536Z,1007.46
2018-10-07T11:16:17.438Z,1007.45
2018-10-07T11:17:17.430Z,1007.48
2018-10-07T11:18:17.423Z,1007.46
2018-10-07T11:19:17.429Z,1007.45
2018-10-07T11:20:17.413Z,1007.39
2018-10-07T11:21:17.403Z,1007.49
2018-10-07T11:22:17.374Z,1007.43
2018-10-07T11:23:17.371Z,1007.39
2018-10-07T11:24:17.353Z,1007.45
2018-10-07T11:25:17.343Z,1007.43
2018-10-07T11:26:17.385Z,1007.47
2018-10-07T11:27:17.317Z,1007.42
2018-10-07T11:28:17.309Z,1007.36
2018-10-07T11:29:17.301Z,1007.39
2018-10-07T11:30:17.288Z,1007.34
2018-10-07T11:31:17.274Z,1007.35
2018-10-07T11:32:17.275Z,1007.34
2018-10-07T11:33:17.253Z,1007.31
2018-10-07T11:34:17.244Z,1007.32
2018-10-07T11:35:17.234Z,1007.30
2018-10-07T11:36:17.219Z,1007.28
2018-10-07T11:37:17.245Z,1007.30
2018-10-07T11:38:17.199Z,1007.32
2018-10-07T11:39:17.188Z,1007.31
2018-10-07T11:40:17.177Z,1007.26
2018-10-07T11:41:17.162Z,1007.24
2018-10-07T11:42:17.161Z,1007.24
2018-10-07T11:43:17.150Z,1007.21
2018-10-07T11:44:17.149Z,1007.22
2018-10-07T11:45:17.138Z,1007.17
2018-10-07T11:46:17.127Z,1007.20
2018-10-07T11:47:17.107Z,1007.22
2018-10-07T11:48:17.085Z,1007.24
2018-10-07T11:49:17.092Z,1007.23
2018-10-07T11:50:17.101Z,1007.29
2018-10-07T11:51:17.058Z,1007.28
2018-10-07T11:52:17.043Z,1007.32
2018-10-07T11:53:17.031Z,1007.28
2018-10-07T11:54:17.021Z,1007.29
2018-10-07T11:55:17.008Z,1007.32
2018-10-07T11:56:17.016Z,1007.25
2018-10-07T11:57:16.991Z,1007.31
2018-10-07T11:58:16.993Z,1007.34
2018-10-07T11:59:16.966Z,1007.32
2018-10-07T12:00:16.956Z,1007.34
2018-10-07T12:01:16.944Z,1007.32
2018-10-07T12:02:17.011Z,1007.30
2018-10-07T12:03:16.924Z,1007.28
2018-10-07T12:04:16.948Z,1007.10
2018-10-07T12:05:16.906Z,1007.30
2018-10-07T12:06:16.933Z,1007.25
2018-10-07T12:07:16.884Z,1007.23
2018-10-07T12:08:16.872Z,1007.20
2018-10-07T12:09:16.859Z,1007.19
2018-10-07T12:10:16.915Z,1007.19
2018-10-07T12:11:16.840Z,1007.19